sensor_id;sensor_type;location;lat;lon;timestamp;pressure;altitude;pressure_sealevel;temperature;humidity
77737;BME280;66903;59.926;30.404;2023-01-23T00:08:01;103840.13;;;23.03;34.05
77737;BME280;66903;59.926;30.404;2023-01-23T00:18:59;103833.34;;;22.98;34.10
77737;BME280;66903;59.926;30.404;2023-01-23T00:23:59;103828.75;;;22.97;34.13
77737;BME280;66903;59.926;30.404;2023-01-23T00:35:22;103841.19;;;23.09;33.93
77737;BME280;66903;59.926;30.404;2023-01-23T00:40:47;103847.81;;;23.03;33.87
77737;BME280;66903;59.926;30.404;2023-01-23T00:51:38;103846.94;;;23.02;33.93
77737;BME280;66903;59.926;30.404;2023-01-23T00:57:00;103839.47;;;23.01;33.81
77737;BME280;66903;59.926;30.404;2023-01-23T01:02:15;103842.53;;;23.07;33.76
77737;BME280;66903;59.926;30.404;2023-01-23T01:07:16;103837.97;;;22.99;33.78
77737;BME280;66903;59.926;30.404;2023-01-23T01:12:35;103817.72;;;23.07;33.90
77737;BME280;66903;59.926;30.404;2023-01-23T01:18:19;103813.16;;;23.06;33.96
77737;BME280;66903;59.926;30.404;2023-01-23T01:47:10;103791.22;;;23.07;33.50
77737;BME280;66903;59.926;30.404;2023-01-23T01:52:16;103787.91;;;23.10;33.44
77737;BME280;66903;59.926;30.404;2023-01-23T02:03:07;103789.44;;;23.05;33.38
77737;BME280;66903;59.926;30.404;2023-01-23T02:08:39;103787.91;;;23.10;33.49
77737;BME280;66903;59.926;30.404;2023-01-23T02:19:54;103775.84;;;23.08;33.27
77737;BME280;66903;59.926;30.404;2023-01-23T02:35:53;103786.81;;;23.04;33.26
77737;BME280;66903;59.926;30.404;2023-01-23T02:40:56;103805.47;;;23.07;33.14
77737;BME280;66903;59.926;30.404;2023-01-23T02:46:01;103795.13;;;23.12;33.30
77737;BME280;66903;59.926;30.404;2023-01-23T02:51:02;103809.38;;;23.12;33.04
77737;BME280;66903;59.926;30.404;2023-01-23T02:56:03;103798.66;;;23.08;33.41
77737;BME280;66903;59.926;30.404;2023-01-23T03:06:45;103785.28;;;23.08;33.21
77737;BME280;66903;59.926;30.404;2023-01-23T03:11:46;103781.28;;;23.16;33.26
77737;BME280;66903;59.926;30.404;2023-01-23T03:16:46;103781.09;;;23.11;33.26
77737;BME280;66903;59.926;30.404;2023-01-23T03:21:50;103781.75;;;23.13;33.28
77737;BME280;66903;59.926;30.404;2023-01-23T03:26:51;103775.38;;;23.11;33.14
77737;BME280;66903;59.926;30.404;2023-01-23T03:43:13;103794.22;;;23.18;33.51
77737;BME280;66903;59.926;30.404;2023-01-23T03:48:14;103785.25;;;23.15;33.54
77737;BME280;66903;59.926;30.404;2023-01-23T03:59:07;103793.19;;;23.06;33.36
77737;BME280;66903;59.926;30.404;2023-01-23T04:04:08;103790.94;;;23.15;33.17
77737;BME280;66903;59.926;30.404;2023-01-23T04:09:09;103782.19;;;23.10;33.30
77737;BME280;66903;59.926;30.404;2023-01-23T04:14:09;103773.13;;;22.68;33.37
77737;BME280;66903;59.926;30.404;2023-01-23T04:19:10;103785.44;;;22.36;34.02
77737;BME280;66903;59.926;30.404;2023-01-23T04:24:10;103780.41;;;22.19;34.48
77737;BME280;66903;59.926;30.404;2023-01-23T04:29:11;103785.63;;;22.74;34.55
77737;BME280;66903;59.926;30.404;2023-01-23T04:34:11;103784.75;;;22.47;34.12
77737;BME280;66903;59.926;30.404;2023-01-23T04:39:36;103786.53;;;22.29;34.70
77737;BME280;66903;59.926;30.404;2023-01-23T04:44:46;103779.28;;;22.26;34.85
77737;BME280;66903;59.926;30.404;2023-01-23T04:49:46;103769.88;;;22.32;35.16
77737;BME280;66903;59.926;30.404;2023-01-23T04:54:46;103769.03;;;22.25;35.13
77737;BME280;66903;59.926;30.404;2023-01-23T04:59:47;103775.81;;;22.24;35.05
77737;BME280;66903;59.926;30.404;2023-01-23T05:04:48;103779.31;;;22.13;34.72
77737;BME280;66903;59.926;30.404;2023-01-23T05:09:48;103769.00;;;22.12;34.69
77737;BME280;66903;59.926;30.404;2023-01-23T05:14:52;103760.28;;;22.14;34.63
77737;BME280;66903;59.926;30.404;2023-01-23T05:19:52;103760.69;;;22.11;34.40
77737;BME280;66903;59.926;30.404;2023-01-23T05:24:53;103747.31;;;22.37;34.08
77737;BME280;66903;59.926;30.404;2023-01-23T05:29:53;103757.38;;;22.66;33.48
77737;BME280;66903;59.926;30.404;2023-01-23T05:34:54;103757.78;;;22.69;33.37
77737;BME280;66903;59.926;30.404;2023-01-23T05:40:31;103773.97;;;22.82;33.33
77737;BME280;66903;59.926;30.404;2023-01-23T05:46:09;103772.09;;;23.14;32.91
77737;BME280;66903;59.926;30.404;2023-01-23T05:51:28;103769.16;;;23.33;32.44
77737;BME280;66903;59.926;30.404;2023-01-23T05:56:31;103762.06;;;23.04;32.93
77737;BME280;66903;59.926;30.404;2023-01-23T06:01:32;103775.47;;;22.97;32.97
77737;BME280;66903;59.926;30.404;2023-01-23T06:06:32;103776.53;;;22.96;32.83
77737;BME280;66903;59.926;30.404;2023-01-23T06:11:33;103770.19;;;22.94;32.83
77737;BME280;66903;59.926;30.404;2023-01-23T06:16:34;103777.84;;;23.00;32.58
77737;BME280;66903;59.926;30.404;2023-01-23T06:21:34;103778.97;;;22.99;32.47
77737;BME280;66903;59.926;30.404;2023-01-23T06:26:35;103777.38;;;23.03;32.20
77737;BME280;66903;59.926;30.404;2023-01-23T06:31:35;103772.81;;;23.02;32.58
77737;BME280;66903;59.926;30.404;2023-01-23T06:36:36;103788.78;;;23.10;32.51
77737;BME280;66903;59.926;30.404;2023-01-23T06:41:36;103777.63;;;23.02;32.60
77737;BME280;66903;59.926;30.404;2023-01-23T06:46:37;103768.44;;;22.93;32.59
77737;BME280;66903;59.926;30.404;2023-01-23T06:51:37;103777.47;;;22.90;32.72
77737;BME280;66903;59.926;30.404;2023-01-23T06:56:38;103787.97;;;22.90;32.73
77737;BME280;66903;59.926;30.404;2023-01-23T07:01:38;103798.81;;;23.26;32.63
77737;BME280;66903;59.926;30.404;2023-01-23T07:06:39;103797.16;;;23.56;32.38
77737;BME280;66903;59.926;30.404;2023-01-23T07:11:39;103797.53;;;23.66;32.29
77737;BME280;66903;59.926;30.404;2023-01-23T07:16:40;103792.91;;;23.65;32.03
77737;BME280;66903;59.926;30.404;2023-01-23T07:21:40;103790.47;;;23.68;32.18
77737;BME280;66903;59.926;30.404;2023-01-23T07:26:41;103782.31;;;23.72;32.07
77737;BME280;66903;59.926;30.404;2023-01-23T07:31:42;103772.19;;;23.76;32.22
77737;BME280;66903;59.926;30.404;2023-01-23T07:36:42;103760.31;;;23.79;31.67
77737;BME280;66903;59.926;30.404;2023-01-23T08:56:22;103741.97;;;26.03;28.49
77737;BME280;66903;59.926;30.404;2023-01-23T09:01:24;103742.81;;;26.68;28.85
77737;BME280;66903;59.926;30.404;2023-01-23T09:06:26;103734.22;;;27.08;28.58
77737;BME280;66903;59.926;30.404;2023-01-23T09:11:26;103755.88;;;27.39;28.78
77737;BME280;66903;59.926;30.404;2023-01-23T09:16:27;103750.97;;;27.67;28.58
77737;BME280;66903;59.926;30.404;2023-01-23T09:21:27;103765.06;;;27.97;29.91
77737;BME280;66903;59.926;30.404;2023-01-23T09:26:28;103762.72;;;28.27;28.63
77737;BME280;66903;59.926;30.404;2023-01-23T09:31:28;103747.38;;;28.38;28.31
77737;BME280;66903;59.926;30.404;2023-01-23T09:36:30;103747.47;;;28.26;28.24
77737;BME280;66903;59.926;30.404;2023-01-23T09:41:30;103747.72;;;27.47;28.57
77737;BME280;66903;59.926;30.404;2023-01-23T09:46:42;103746.78;;;26.67;28.97
77737;BME280;66903;59.926;30.404;2023-01-23T09:56:56;103737.28;;;25.68;29.41
77737;BME280;66903;59.926;30.404;2023-01-23T10:01:59;103729.09;;;25.42;29.58
77737;BME280;66903;59.926;30.404;2023-01-23T10:07:26;103728.47;;;25.22;29.43
77737;BME280;66903;59.926;30.404;2023-01-23T10:13:10;103729.13;;;25.05;29.74
77737;BME280;66903;59.926;30.404;2023-01-23T10:18:36;103707.41;;;24.86;29.65
77737;BME280;66903;59.926;30.404;2023-01-23T10:29:17;103701.88;;;24.67;29.63
77737;BME280;66903;59.926;30.404;2023-01-23T10:34:39;103702.78;;;24.67;30.24
77737;BME280;66903;59.926;30.404;2023-01-23T10:40:17;103704.94;;;24.90;29.98
77737;BME280;66903;59.926;30.404;2023-01-23T10:45:38;103693.72;;;25.06;29.79
77737;BME280;66903;59.926;30.404;2023-01-23T10:50:39;103685.56;;;25.22;29.57
77737;BME280;66903;59.926;30.404;2023-01-23T10:55:44;103696.44;;;25.31;30.01
77737;BME280;66903;59.926;30.404;2023-01-23T11:00:45;103694.63;;;25.37;29.69
77737;BME280;66903;59.926;30.404;2023-01-23T11:05:55;103696.00;;;25.46;29.87
77737;BME280;66903;59.926;30.404;2023-01-23T11:11:23;103687.34;;;25.52;29.53
77737;BME280;66903;59.926;30.404;2023-01-23T11:16:24;103679.50;;;25.30;29.59
77737;BME280;66903;59.926;30.404;2023-01-23T11:21:32;103680.19;;;25.13;30.02
77737;BME280;66903;59.926;30.404;2023-01-23T11:26:34;103677.13;;;24.97;29.81
77737;BME280;66903;59.926;30.404;2023-01-23T11:31:36;103671.50;;;24.90;30.21
77737;BME280;66903;59.926;30.404;2023-01-23T11:41:56;103665.75;;;25.08;30.29
77737;BME280;66903;59.926;30.404;2023-01-23T11:47:13;103663.94;;;24.96;30.22
77737;BME280;66903;59.926;30.404;2023-01-23T12:45:23;103652.75;;;24.58;30.20
77737;BME280;66903;59.926;30.404;2023-01-23T13:12:05;103631.56;;;24.84;30.89
77737;BME280;66903;59.926;30.404;2023-01-23T13:17:46;103637.81;;;24.92;30.60
77737;BME280;66903;59.926;30.404;2023-01-23T13:22:48;103630.97;;;24.93;30.87
77737;BME280;66903;59.926;30.404;2023-01-23T13:27:55;103632.88;;;24.99;30.89
77737;BME280;66903;59.926;30.404;2023-01-23T13:33:00;103625.31;;;25.05;31.44
77737;BME280;66903;59.926;30.404;2023-01-23T13:43:40;103618.75;;;25.16;31.19
77737;BME280;66903;59.926;30.404;2023-01-23T13:54:30;103630.31;;;25.21;30.93
77737;BME280;66903;59.926;30.404;2023-01-23T13:59:50;103613.84;;;25.35;30.83
77737;BME280;66903;59.926;30.404;2023-01-23T14:05:04;103615.31;;;25.26;30.84
77737;BME280;66903;59.926;30.404;2023-01-23T14:10:34;103613.69;;;25.30;30.77
77737;BME280;66903;59.926;30.404;2023-01-23T14:15:37;103614.09;;;25.33;31.07
77737;BME280;66903;59.926;30.404;2023-01-23T14:26:28;103618.88;;;25.51;31.30
77737;BME280;66903;59.926;30.404;2023-01-23T14:31:32;103627.81;;;25.43;31.09
77737;BME280;66903;59.926;30.404;2023-01-23T14:36:35;103620.88;;;25.21;30.84
77737;BME280;66903;59.926;30.404;2023-01-23T14:41:38;103615.72;;;24.99;30.76
77737;BME280;66903;59.926;30.404;2023-01-23T14:46:39;103615.47;;;24.71;31.26
77737;BME280;66903;59.926;30.404;2023-01-23T14:51:54;103602.88;;;24.54;30.92
77737;BME280;66903;59.926;30.404;2023-01-23T14:56:55;103598.06;;;24.37;31.30
77737;BME280;66903;59.926;30.404;2023-01-23T15:01:58;103608.28;;;24.26;31.08
77737;BME280;66903;59.926;30.404;2023-01-23T15:07:00;103598.31;;;24.17;31.32
77737;BME280;66903;59.926;30.404;2023-01-23T15:12:05;103600.06;;;24.18;31.06
77737;BME280;66903;59.926;30.404;2023-01-23T15:17:13;103594.09;;;24.20;30.93
77737;BME280;66903;59.926;30.404;2023-01-23T15:22:28;103601.09;;;24.24;31.02
77737;BME280;66903;59.926;30.404;2023-01-23T15:27:33;103603.72;;;24.25;30.65
77737;BME280;66903;59.926;30.404;2023-01-23T15:32:37;103599.50;;;24.28;30.57
77737;BME280;66903;59.926;30.404;2023-01-23T15:37:38;103600.75;;;24.32;30.72
77737;BME280;66903;59.926;30.404;2023-01-23T15:42:38;103596.31;;;24.36;30.93
77737;BME280;66903;59.926;30.404;2023-01-23T15:47:39;103598.38;;;24.47;30.88
77737;BME280;66903;59.926;30.404;2023-01-23T15:52:48;103593.25;;;24.67;30.62
77737;BME280;66903;59.926;30.404;2023-01-23T15:57:48;103590.50;;;24.78;30.44
77737;BME280;66903;59.926;30.404;2023-01-23T16:02:55;103598.94;;;24.73;30.22
77737;BME280;66903;59.926;30.404;2023-01-23T16:07:57;103598.44;;;24.58;30.40
77737;BME280;66903;59.926;30.404;2023-01-23T16:13:00;103588.28;;;24.44;29.98
77737;BME280;66903;59.926;30.404;2023-01-23T16:18:01;103595.84;;;24.39;30.39
77737;BME280;66903;59.926;30.404;2023-01-23T16:23:22;103576.56;;;24.34;30.20
77737;BME280;66903;59.926;30.404;2023-01-23T16:28:23;103564.84;;;24.24;30.06
77737;BME280;66903;59.926;30.404;2023-01-23T16:33:27;103558.72;;;24.21;29.98
77737;BME280;66903;59.926;30.404;2023-01-23T16:38:28;103553.22;;;24.19;30.28
77737;BME280;66903;59.926;30.404;2023-01-23T16:43:44;103550.63;;;24.18;29.91
77737;BME280;66903;59.926;30.404;2023-01-23T16:48:45;103536.47;;;24.23;29.99
77737;BME280;66903;59.926;30.404;2023-01-23T16:53:50;103544.16;;;24.40;30.21
77737;BME280;66903;59.926;30.404;2023-01-23T16:58:51;103541.41;;;24.63;30.10
77737;BME280;66903;59.926;30.404;2023-01-23T17:03:59;103536.38;;;24.47;30.12
77737;BME280;66903;59.926;30.404;2023-01-23T17:09:01;103528.25;;;24.33;30.75
77737;BME280;66903;59.926;30.404;2023-01-23T17:14:05;103521.50;;;24.27;30.66
77737;BME280;66903;59.926;30.404;2023-01-23T17:24:20;103516.34;;;24.18;31.11
77737;BME280;66903;59.926;30.404;2023-01-23T17:29:20;103509.16;;;24.15;31.06
77737;BME280;66903;59.926;30.404;2023-01-23T17:34:24;103520.81;;;24.14;31.24
77737;BME280;66903;59.926;30.404;2023-01-23T17:39:25;103520.03;;;24.06;31.54
77737;BME280;66903;59.926;30.404;2023-01-23T17:44:26;103523.63;;;23.95;31.19
77737;BME280;66903;59.926;30.404;2023-01-23T17:49:30;103523.31;;;23.85;31.67
77737;BME280;66903;59.926;30.404;2023-01-23T17:54:31;103515.53;;;23.74;31.96
77737;BME280;66903;59.926;30.404;2023-01-23T17:59:32;103505.94;;;23.69;31.46
77737;BME280;66903;59.926;30.404;2023-01-23T18:04:32;103521.38;;;23.61;31.54
77737;BME280;66903;59.926;30.404;2023-01-23T18:09:33;103512.00;;;23.54;31.34
77737;BME280;66903;59.926;30.404;2023-01-23T18:14:38;103516.06;;;23.47;31.45
77737;BME280;66903;59.926;30.404;2023-01-23T18:19:41;103520.97;;;23.40;31.09
77737;BME280;66903;59.926;30.404;2023-01-23T18:24:42;103522.69;;;23.41;31.63
77737;BME280;66903;59.926;30.404;2023-01-23T18:40:21;103522.22;;;23.44;31.63
77737;BME280;66903;59.926;30.404;2023-01-23T18:45:24;103520.00;;;23.46;31.30
77737;BME280;66903;59.926;30.404;2023-01-23T18:50:25;103527.00;;;23.50;31.22
77737;BME280;66903;59.926;30.404;2023-01-23T19:00:51;103509.34;;;23.59;31.38
77737;BME280;66903;59.926;30.404;2023-01-23T19:05:56;103505.53;;;23.65;31.54
77737;BME280;66903;59.926;30.404;2023-01-23T19:11:00;103498.50;;;23.68;32.02
77737;BME280;66903;59.926;30.404;2023-01-23T19:16:14;103492.38;;;23.64;32.59
77737;BME280;66903;59.926;30.404;2023-01-23T19:21:23;103485.63;;;23.59;32.80
77737;BME280;66903;59.926;30.404;2023-01-23T19:26:28;103483.88;;;23.58;32.85
77737;BME280;66903;59.926;30.404;2023-01-23T19:31:31;103469.41;;;23.59;32.79
77737;BME280;66903;59.926;30.404;2023-01-23T19:36:34;103466.31;;;23.61;33.12
77737;BME280;66903;59.926;30.404;2023-01-23T19:41:39;103452.88;;;23.61;33.26
77737;BME280;66903;59.926;30.404;2023-01-23T19:46:41;103468.44;;;23.65;32.97
77737;BME280;66903;59.926;30.404;2023-01-23T19:51:43;103457.66;;;23.67;32.34
77737;BME280;66903;59.926;30.404;2023-01-23T19:56:43;103462.09;;;23.63;32.65
77737;BME280;66903;59.926;30.404;2023-01-23T20:01:45;103465.81;;;23.64;33.16
77737;BME280;66903;59.926;30.404;2023-01-23T20:06:48;103457.41;;;23.69;34.51
77737;BME280;66903;59.926;30.404;2023-01-23T20:11:50;103453.84;;;24.09;34.93
77737;BME280;66903;59.926;30.404;2023-01-23T20:16:51;103446.06;;;24.58;34.56
77737;BME280;66903;59.926;30.404;2023-01-23T20:21:53;103437.38;;;24.94;34.09
77737;BME280;66903;59.926;30.404;2023-01-23T20:26:54;103440.03;;;25.18;33.69
77737;BME280;66903;59.926;30.404;2023-01-23T20:31:54;103447.25;;;25.33;34.06
77737;BME280;66903;59.926;30.404;2023-01-23T20:36:55;103431.59;;;25.47;33.41
77737;BME280;66903;59.926;30.404;2023-01-23T20:41:55;103419.38;;;25.51;33.22
77737;BME280;66903;59.926;30.404;2023-01-23T20:46:56;103409.06;;;25.50;32.84
77737;BME280;66903;59.926;30.404;2023-01-23T20:51:57;103404.81;;;25.53;33.14
77737;BME280;66903;59.926;30.404;2023-01-23T20:57:17;103399.97;;;25.53;33.26
77737;BME280;66903;59.926;30.404;2023-01-23T21:02:18;103405.16;;;25.56;33.27
77737;BME280;66903;59.926;30.404;2023-01-23T21:07:26;103406.66;;;25.59;32.87
77737;BME280;66903;59.926;30.404;2023-01-23T21:12:27;103402.44;;;25.61;33.14
77737;BME280;66903;59.926;30.404;2023-01-23T21:17:28;103400.44;;;25.62;33.43
77737;BME280;66903;59.926;30.404;2023-01-23T21:22:29;103388.97;;;25.62;33.38
77737;BME280;66903;59.926;30.404;2023-01-23T21:27:35;103384.41;;;25.61;33.71
77737;BME280;66903;59.926;30.404;2023-01-23T21:32:35;103392.94;;;25.72;33.30
77737;BME280;66903;59.926;30.404;2023-01-23T21:37:36;103395.47;;;25.57;34.03
77737;BME280;66903;59.926;30.404;2023-01-23T21:42:36;103387.88;;;25.51;33.88
77737;BME280;66903;59.926;30.404;2023-01-23T21:47:37;103391.00;;;25.50;34.45
77737;BME280;66903;59.926;30.404;2023-01-23T21:52:37;103396.09;;;25.48;35.11
77737;BME280;66903;59.926;30.404;2023-01-23T21:57:38;103383.81;;;25.47;36.00
77737;BME280;66903;59.926;30.404;2023-01-23T22:02:39;103369.25;;;25.49;36.10
77737;BME280;66903;59.926;30.404;2023-01-23T22:07:40;103353.94;;;25.43;36.03
77737;BME280;66903;59.926;30.404;2023-01-23T22:12:40;103374.97;;;25.37;36.15
77737;BME280;66903;59.926;30.404;2023-01-23T22:17:40;103363.78;;;25.24;36.68
77737;BME280;66903;59.926;30.404;2023-01-23T22:22:44;103378.94;;;25.13;36.08
77737;BME280;66903;59.926;30.404;2023-01-23T22:28:00;103375.59;;;25.04;36.15
77737;BME280;66903;59.926;30.404;2023-01-23T22:33:00;103389.66;;;24.94;36.29
77737;BME280;66903;59.926;30.404;2023-01-23T22:38:00;103385.41;;;24.85;36.64
77737;BME280;66903;59.926;30.404;2023-01-23T22:48:39;103383.91;;;24.71;36.71
77737;BME280;66903;59.926;30.404;2023-01-23T22:53:39;103375.16;;;24.66;36.50
77737;BME280;66903;59.926;30.404;2023-01-23T22:58:46;103368.81;;;24.64;36.88
77737;BME280;66903;59.926;30.404;2023-01-23T23:03:47;103355.50;;;24.58;36.64
77737;BME280;66903;59.926;30.404;2023-01-23T23:08:52;103344.56;;;24.55;37.03
77737;BME280;66903;59.926;30.404;2023-01-23T23:14:02;103348.41;;;24.49;36.89
77737;BME280;66903;59.926;30.404;2023-01-23T23:25:20;103331.38;;;24.43;37.24
77737;BME280;66903;59.926;30.404;2023-01-23T23:30:36;103312.34;;;24.37;37.08
77737;BME280;66903;59.926;30.404;2023-01-23T23:41:14;103303.41;;;24.33;36.71
77737;BME280;66903;59.926;30.404;2023-01-23T23:46:33;103285.28;;;24.28;37.00
77737;BME280;66903;59.926;30.404;2023-01-23T23:57:42;103287.13;;;24.22;37.05
